sensor_id;sensor_type;location;lat;lon;timestamp;pressure;altitude;pressure_sealevel;temperature;humidity
59682;BME280;45548;39.530;-9.118;2022-07-11T06:32:36;100835.88;;;16.47;86.70
59682;BME280;45548;39.530;-9.118;2022-07-11T06:35:05;100829.59;;;16.86;85.87
59682;BME280;45548;39.530;-9.118;2022-07-11T06:37:30;100833.78;;;17.00;84.35
59682;BME280;45548;39.530;-9.118;2022-07-11T06:39:56;100835.97;;;17.10;83.49
59682;BME280;45548;39.530;-9.118;2022-07-11T06:42:21;100833.34;;;17.35;82.90
59682;BME280;45548;39.530;-9.118;2022-07-11T06:44:47;100826.38;;;17.40;81.62
59682;BME280;45548;39.530;-9.118;2022-07-11T06:47:12;100817.78;;;17.45;81.26
59682;BME280;45548;39.530;-9.118;2022-07-11T06:49:37;100823.41;;;17.55;81.16
59682;BME280;45548;39.530;-9.118;2022-07-11T06:52:03;100836.59;;;18.05;79.34
59682;BME280;45548;39.530;-9.118;2022-07-11T06:54:28;100828.69;;;18.35;77.54
59682;BME280;45548;39.530;-9.118;2022-07-11T06:56:54;100829.41;;;18.42;76.97
59682;BME280;45548;39.530;-9.118;2022-07-11T06:59:19;100830.41;;;18.30;77.33
59682;BME280;45548;39.530;-9.118;2022-07-11T07:01:45;100832.84;;;18.13;77.91
59682;BME280;45548;39.530;-9.118;2022-07-11T07:04:10;100829.53;;;17.99;78.90
59682;BME280;45548;39.530;-9.118;2022-07-11T07:06:36;100830.84;;;17.90;79.07
59682;BME280;45548;39.530;-9.118;2022-07-11T07:09:01;100824.38;;;17.86;79.77
59682;BME280;45548;39.530;-9.118;2022-07-11T07:11:28;100830.91;;;17.83;79.62
59682;BME280;45548;39.530;-9.118;2022-07-11T07:13:54;100835.34;;;17.89;79.06
59682;BME280;45548;39.530;-9.118;2022-07-11T07:16:19;100839.69;;;18.02;78.28
59682;BME280;45548;39.530;-9.118;2022-07-11T07:18:45;100839.50;;;18.15;77.95
59682;BME280;45548;39.530;-9.118;2022-07-11T07:21:12;100836.50;;;18.30;77.38
59682;BME280;45548;39.530;-9.118;2022-07-11T07:23:38;100842.00;;;18.28;77.08
59682;BME280;45548;39.530;-9.118;2022-07-11T07:26:04;100830.84;;;18.26;77.04
59682;BME280;45548;39.530;-9.118;2022-07-11T07:28:29;100836.50;;;18.30;76.94
59682;BME280;45548;39.530;-9.118;2022-07-11T07:30:56;100839.19;;;18.42;76.38
59682;BME280;45548;39.530;-9.118;2022-07-11T07:33:21;100842.38;;;18.50;76.23
59682;BME280;45548;39.530;-9.118;2022-07-11T07:35:47;100847.00;;;18.73;75.83
59682;BME280;45548;39.530;-9.118;2022-07-11T07:38:12;100831.06;;;19.69;73.06
59682;BME280;45548;39.530;-9.118;2022-07-11T07:40:38;100834.91;;;20.48;68.82
59682;BME280;45548;39.530;-9.118;2022-07-11T07:43:03;100844.91;;;20.58;68.44
59682;BME280;45548;39.530;-9.118;2022-07-11T07:45:29;100847.22;;;20.54;68.42
59682;BME280;45548;39.530;-9.118;2022-07-11T07:47:54;100841.28;;;20.92;66.98
59682;BME280;45548;39.530;-9.118;2022-07-11T07:50:20;100836.47;;;20.61;67.68
59682;BME280;45548;39.530;-9.118;2022-07-11T07:52:47;100847.06;;;20.09;68.93
59682;BME280;45548;39.530;-9.118;2022-07-11T07:55:13;100845.34;;;19.91;69.79
59682;BME280;45548;39.530;-9.118;2022-07-11T07:57:38;100846.94;;;20.27;69.27
59682;BME280;45548;39.530;-9.118;2022-07-11T08:00:04;100850.31;;;20.63;67.65
59682;BME280;45548;39.530;-9.118;2022-07-11T08:02:48;100859.47;;;20.43;67.97
59682;BME280;45548;39.530;-9.118;2022-07-11T08:05:16;100853.84;;;20.28;68.87
59682;BME280;45548;39.530;-9.118;2022-07-11T08:07:42;100858.19;;;19.94;69.55
59682;BME280;45548;39.530;-9.118;2022-07-11T08:10:08;100857.81;;;19.90;69.78
59682;BME280;45548;39.530;-9.118;2022-07-11T08:12:33;100843.63;;;20.89;67.15
59682;BME280;45548;39.530;-9.118;2022-07-11T08:14:59;100852.47;;;21.57;65.00
59682;BME280;45548;39.530;-9.118;2022-07-11T08:17:24;100852.38;;;22.07;62.77
59682;BME280;45548;39.530;-9.118;2022-07-11T08:19:50;100857.94;;;22.05;62.38
59682;BME280;45548;39.530;-9.118;2022-07-11T08:22:15;100870.59;;;21.60;63.67
59682;BME280;45548;39.530;-9.118;2022-07-11T08:24:40;100865.16;;;21.04;65.00
59682;BME280;45548;39.530;-9.118;2022-07-11T08:27:06;100866.53;;;20.50;67.19
59682;BME280;45548;39.530;-9.118;2022-07-11T08:29:31;100863.78;;;21.02;65.82
59682;BME280;45548;39.530;-9.118;2022-07-11T08:31:57;100858.31;;;22.80;60.18
59682;BME280;45548;39.530;-9.118;2022-07-11T08:34:22;100870.81;;;23.01;58.36
59682;BME280;45548;39.530;-9.118;2022-07-11T08:36:48;100860.81;;;23.88;57.56
59682;BME280;45548;39.530;-9.118;2022-07-11T08:39:13;100867.66;;;24.94;53.37
59682;BME280;45548;39.530;-9.118;2022-07-11T08:41:42;100866.53;;;24.74;53.28
59682;BME280;45548;39.530;-9.118;2022-07-11T08:44:08;100859.06;;;24.82;52.99
59682;BME280;45548;39.530;-9.118;2022-07-11T08:46:33;100862.56;;;24.14;55.18
59682;BME280;45548;39.530;-9.118;2022-07-11T08:48:59;100875.06;;;22.97;57.72
59682;BME280;45548;39.530;-9.118;2022-07-11T08:51:27;100873.63;;;22.02;61.05
59682;BME280;45548;39.530;-9.118;2022-07-11T08:53:53;100871.09;;;21.57;62.37
59682;BME280;45548;39.530;-9.118;2022-07-11T08:56:19;100861.25;;;21.40;63.15
59682;BME280;45548;39.530;-9.118;2022-07-11T08:58:48;100867.34;;;21.24;63.94
59682;BME280;45548;39.530;-9.118;2022-07-11T09:01:16;100866.53;;;21.23;63.99
59682;BME280;45548;39.530;-9.118;2022-07-11T09:03:43;100867.72;;;21.61;63.17
59682;BME280;45548;39.530;-9.118;2022-07-11T09:06:09;100870.16;;;22.67;60.45
59682;BME280;45548;39.530;-9.118;2022-07-11T09:08:36;100867.56;;;24.63;54.35
59682;BME280;45548;39.530;-9.118;2022-07-11T09:11:03;100890.38;;;25.98;50.63
59682;BME280;45548;39.530;-9.118;2022-07-11T09:13:29;100878.44;;;26.35;49.24
59682;BME280;45548;39.530;-9.118;2022-07-11T09:16:04;100880.44;;;27.47;46.56
59682;BME280;45548;39.530;-9.118;2022-07-11T09:18:34;100884.59;;;27.92;44.86
59682;BME280;45548;39.530;-9.118;2022-07-11T09:23:46;100890.50;;;27.65;45.01
59682;BME280;45548;39.530;-9.118;2022-07-11T09:26:32;100886.59;;;27.18;46.51
59682;BME280;45548;39.530;-9.118;2022-07-11T09:29:21;100889.78;;;26.81;47.57
59682;BME280;45548;39.530;-9.118;2022-07-11T09:31:49;100889.06;;;26.65;47.58
59682;BME280;45548;39.530;-9.118;2022-07-11T09:34:17;100893.19;;;27.65;45.79
59682;BME280;45548;39.530;-9.118;2022-07-11T09:36:47;100870.16;;;28.74;42.92
59682;BME280;45548;39.530;-9.118;2022-07-11T09:39:19;100872.19;;;29.01;42.24
59682;BME280;45548;39.530;-9.118;2022-07-11T09:41:45;100867.16;;;28.75;42.27
59682;BME280;45548;39.530;-9.118;2022-07-11T09:44:25;100877.91;;;28.56;43.19
59682;BME280;45548;39.530;-9.118;2022-07-11T09:46:53;100886.28;;;28.55;42.76
59682;BME280;45548;39.530;-9.118;2022-07-11T09:49:36;100877.94;;;29.59;41.04
59682;BME280;45548;39.530;-9.118;2022-07-11T09:52:13;100875.97;;;29.92;39.88
59682;BME280;45548;39.530;-9.118;2022-07-11T09:54:59;100872.88;;;29.39;41.18
59682;BME280;45548;39.530;-9.118;2022-07-11T09:57:31;100875.94;;;29.19;42.08
59682;BME280;45548;39.530;-9.118;2022-07-11T09:59:57;100881.69;;;28.55;42.76
59682;BME280;45548;39.530;-9.118;2022-07-11T10:02:24;100883.28;;;28.14;43.62
59682;BME280;45548;39.530;-9.118;2022-07-11T10:04:49;100874.94;;;28.58;43.28
59682;BME280;45548;39.530;-9.118;2022-07-11T10:07:15;100876.88;;;29.28;41.94
59682;BME280;45548;39.530;-9.118;2022-07-11T10:09:40;100883.25;;;29.64;41.50
59682;BME280;45548;39.530;-9.118;2022-07-11T10:12:07;100881.50;;;29.41;40.95
59682;BME280;45548;39.530;-9.118;2022-07-11T10:14:35;100881.34;;;27.95;44.38
59682;BME280;45548;39.530;-9.118;2022-07-11T10:17:09;100878.72;;;26.93;46.93
59682;BME280;45548;39.530;-9.118;2022-07-11T10:19:42;100874.47;;;26.27;48.41
59682;BME280;45548;39.530;-9.118;2022-07-11T10:22:34;100881.03;;;25.70;49.89
59682;BME280;45548;39.530;-9.118;2022-07-11T10:25:27;100875.53;;;26.31;48.64
59682;BME280;45548;39.530;-9.118;2022-07-11T10:28:12;100867.81;;;27.77;45.28
59682;BME280;45548;39.530;-9.118;2022-07-11T10:33:12;100870.94;;;27.60;45.61
59682;BME280;45548;39.530;-9.118;2022-07-11T10:35:48;100873.34;;;26.49;48.51
59682;BME280;45548;39.530;-9.118;2022-07-11T10:38:18;100859.81;;;26.04;49.66
59682;BME280;45548;39.530;-9.118;2022-07-11T10:40:57;100863.72;;;26.43;49.03
59682;BME280;45548;39.530;-9.118;2022-07-11T10:43:33;100857.81;;;26.46;48.42
59682;BME280;45548;39.530;-9.118;2022-07-11T10:48:52;100857.63;;;26.22;49.67
59682;BME280;45548;39.530;-9.118;2022-07-11T10:51:47;100865.28;;;27.61;46.46
59682;BME280;45548;39.530;-9.118;2022-07-11T10:59:23;100853.84;;;27.51;46.00
59682;BME280;45548;39.530;-9.118;2022-07-11T11:07:35;100847.50;;;28.37;43.65
59682;BME280;45548;39.530;-9.118;2022-07-11T11:10:44;100838.34;;;27.95;44.81
59682;BME280;45548;39.530;-9.118;2022-07-11T11:23:40;100837.25;;;28.58;44.17
59682;BME280;45548;39.530;-9.118;2022-07-11T11:26:14;100838.34;;;28.76;43.36
59682;BME280;45548;39.530;-9.118;2022-07-11T11:28:58;100834.94;;;28.09;44.36
59682;BME280;45548;39.530;-9.118;2022-07-11T11:31:25;100829.88;;;27.83;45.72
59682;BME280;45548;39.530;-9.118;2022-07-11T11:33:51;100818.72;;;28.19;44.50
59682;BME280;45548;39.530;-9.118;2022-07-11T11:36:19;100823.91;;;28.10;44.70
59682;BME280;45548;39.530;-9.118;2022-07-11T11:38:45;100817.56;;;28.44;43.88
59682;BME280;45548;39.530;-9.118;2022-07-11T11:41:25;100811.25;;;28.35;43.84
59682;BME280;45548;39.530;-9.118;2022-07-11T11:43:59;100803.41;;;27.95;44.94
59682;BME280;45548;39.530;-9.118;2022-07-11T11:46:29;100810.47;;;27.38;46.02
59682;BME280;45548;39.530;-9.118;2022-07-11T11:48:56;100806.47;;;27.60;45.69
59682;BME280;45548;39.530;-9.118;2022-07-11T11:51:24;100813.28;;;28.62;44.21
59682;BME280;45548;39.530;-9.118;2022-07-11T11:53:56;100811.81;;;29.21;42.62
59682;BME280;45548;39.530;-9.118;2022-07-11T11:56:23;100816.34;;;28.74;44.28
59682;BME280;45548;39.530;-9.118;2022-07-11T11:58:55;100809.59;;;28.90;42.47
59682;BME280;45548;39.530;-9.118;2022-07-11T12:01:25;100799.53;;;28.44;44.49
59682;BME280;45548;39.530;-9.118;2022-07-11T12:03:54;100797.66;;;29.15;42.99
59682;BME280;45548;39.530;-9.118;2022-07-11T12:06:22;100794.66;;;29.17;43.10
59682;BME280;45548;39.530;-9.118;2022-07-11T12:08:49;100789.41;;;29.94;41.48
59682;BME280;45548;39.530;-9.118;2022-07-11T12:11:15;100783.03;;;30.40;39.60
59682;BME280;45548;39.530;-9.118;2022-07-11T12:13:41;100782.03;;;30.94;39.32
59682;BME280;45548;39.530;-9.118;2022-07-11T12:16:17;100776.84;;;31.77;37.79
59682;BME280;45548;39.530;-9.118;2022-07-11T12:19:02;100770.25;;;32.36;36.92
59682;BME280;45548;39.530;-9.118;2022-07-11T12:21:30;100779.56;;;31.77;37.71
59682;BME280;45548;39.530;-9.118;2022-07-11T12:24:00;100775.53;;;29.87;40.91
59682;BME280;45548;39.530;-9.118;2022-07-11T12:26:27;100781.09;;;29.22;42.48
59682;BME280;45548;39.530;-9.118;2022-07-11T12:29:17;100779.22;;;29.50;42.55
59682;BME280;45548;39.530;-9.118;2022-07-11T12:34:23;100782.63;;;31.85;37.93
59682;BME280;45548;39.530;-9.118;2022-07-11T12:37:07;100785.09;;;30.79;38.80
59682;BME280;45548;39.530;-9.118;2022-07-11T12:39:37;100790.22;;;31.12;39.02
59682;BME280;45548;39.530;-9.118;2022-07-11T12:42:26;100775.66;;;31.21;38.63
59682;BME280;45548;39.530;-9.118;2022-07-11T12:45:00;100777.53;;;31.43;38.26
59682;BME280;45548;39.530;-9.118;2022-07-11T12:47:34;100780.38;;;31.87;37.40
59682;BME280;45548;39.530;-9.118;2022-07-11T12:50:19;100778.00;;;31.85;36.95
59682;BME280;45548;39.530;-9.118;2022-07-11T12:52:47;100771.50;;;32.12;37.54
59682;BME280;45548;39.530;-9.118;2022-07-11T12:55:22;100773.91;;;32.14;36.54
59682;BME280;45548;39.530;-9.118;2022-07-11T12:58:10;100772.13;;;32.09;36.49
59682;BME280;45548;39.530;-9.118;2022-07-11T13:00:37;100777.03;;;31.90;37.57
59682;BME280;45548;39.530;-9.118;2022-07-11T13:03:07;100774.09;;;32.35;37.00
59682;BME280;45548;39.530;-9.118;2022-07-11T13:05:51;100769.78;;;32.25;36.30
59682;BME280;45548;39.530;-9.118;2022-07-11T13:08:31;100782.53;;;31.67;37.36
59682;BME280;45548;39.530;-9.118;2022-07-11T13:11:14;100784.63;;;31.70;37.13
59682;BME280;45548;39.530;-9.118;2022-07-11T13:13:41;100785.22;;;31.59;37.18
59682;BME280;45548;39.530;-9.118;2022-07-11T13:16:08;100776.78;;;31.60;37.66
59682;BME280;45548;39.530;-9.118;2022-07-11T13:18:34;100770.69;;;30.84;38.68
59682;BME280;45548;39.530;-9.118;2022-07-11T13:20:59;100771.72;;;29.33;41.41
59682;BME280;45548;39.530;-9.118;2022-07-11T13:23:26;100764.63;;;28.20;43.91
59682;BME280;45548;39.530;-9.118;2022-07-11T13:25:57;100762.25;;;27.76;45.96
59682;BME280;45548;39.530;-9.118;2022-07-11T13:28:23;100753.44;;;28.70;43.65
59682;BME280;45548;39.530;-9.118;2022-07-11T13:30:52;100762.63;;;29.01;43.03
59682;BME280;45548;39.530;-9.118;2022-07-11T13:33:18;100766.25;;;30.43;40.77
59682;BME280;45548;39.530;-9.118;2022-07-11T13:35:44;100760.34;;;31.96;38.44
59682;BME280;45548;39.530;-9.118;2022-07-11T13:38:11;100752.47;;;31.69;38.10
59682;BME280;45548;39.530;-9.118;2022-07-11T13:40:36;100760.13;;;30.51;39.84
59682;BME280;45548;39.530;-9.118;2022-07-11T13:43:02;100762.59;;;29.75;41.72
59682;BME280;45548;39.530;-9.118;2022-07-11T13:45:28;100774.31;;;29.24;42.30
59682;BME280;45548;39.530;-9.118;2022-07-11T13:47:54;100768.31;;;29.00;43.52
59682;BME280;45548;39.530;-9.118;2022-07-11T13:50:19;100776.84;;;30.39;40.67
59682;BME280;45548;39.530;-9.118;2022-07-11T13:52:49;100761.00;;;31.14;38.65
59682;BME280;45548;39.530;-9.118;2022-07-11T13:55:20;100765.19;;;31.68;38.02
59682;BME280;45548;39.530;-9.118;2022-07-11T13:57:50;100761.53;;;32.39;36.46
59682;BME280;45548;39.530;-9.118;2022-07-11T14:00:17;100753.00;;;31.00;39.37
59682;BME280;45548;39.530;-9.118;2022-07-11T14:02:43;100748.75;;;31.39;38.14
59682;BME280;45548;39.530;-9.118;2022-07-11T14:05:09;100739.41;;;30.83;39.26
59682;BME280;45548;39.530;-9.118;2022-07-11T14:07:35;100730.44;;;29.79;40.90
59682;BME280;45548;39.530;-9.118;2022-07-11T14:10:01;100726.47;;;29.21;42.10
59682;BME280;45548;39.530;-9.118;2022-07-11T14:12:28;100735.16;;;29.59;41.86
59682;BME280;45548;39.530;-9.118;2022-07-11T14:14:54;100718.06;;;29.78;41.46
59682;BME280;45548;39.530;-9.118;2022-07-11T14:17:20;100725.28;;;30.05;40.84
59682;BME280;45548;39.530;-9.118;2022-07-11T14:19:46;100720.88;;;30.45;40.49
59682;BME280;45548;39.530;-9.118;2022-07-11T14:22:12;100728.22;;;30.53;40.23
59682;BME280;45548;39.530;-9.118;2022-07-11T14:24:38;100730.22;;;30.84;39.01
59682;BME280;45548;39.530;-9.118;2022-07-11T14:27:03;100722.88;;;31.15;38.87
59682;BME280;45548;39.530;-9.118;2022-07-11T14:29:30;100733.78;;;31.02;39.21
59682;BME280;45548;39.530;-9.118;2022-07-11T14:31:56;100734.22;;;29.78;41.27
59682;BME280;45548;39.530;-9.118;2022-07-11T14:34:22;100733.19;;;29.05;43.34
59682;BME280;45548;39.530;-9.118;2022-07-11T14:36:48;100729.31;;;28.78;43.72
59682;BME280;45548;39.530;-9.118;2022-07-11T14:39:14;100720.84;;;29.73;42.26
59682;BME280;45548;39.530;-9.118;2022-07-11T14:41:41;100717.06;;;30.91;40.48
59682;BME280;45548;39.530;-9.118;2022-07-11T14:44:07;100707.91;;;31.09;39.01
59682;BME280;45548;39.530;-9.118;2022-07-11T14:46:33;100708.97;;;30.46;39.98
59682;BME280;45548;39.530;-9.118;2022-07-11T14:48:58;100696.50;;;28.95;43.24
59682;BME280;45548;39.530;-9.118;2022-07-11T14:51:24;100701.31;;;28.33;44.12
59682;BME280;45548;39.530;-9.118;2022-07-11T14:53:53;100696.69;;;27.96;45.67
59682;BME280;45548;39.530;-9.118;2022-07-11T14:56:19;100693.41;;;28.18;45.17
59682;BME280;45548;39.530;-9.118;2022-07-11T14:58:44;100681.66;;;29.53;42.32
59682;BME280;45548;39.530;-9.118;2022-07-11T15:01:10;100686.28;;;30.47;40.16
59682;BME280;45548;39.530;-9.118;2022-07-11T15:03:35;100667.19;;;29.49;41.90
59682;BME280;45548;39.530;-9.118;2022-07-11T15:06:05;100677.28;;;28.37;44.54
59682;BME280;45548;39.530;-9.118;2022-07-11T15:08:31;100676.28;;;28.14;45.39
59682;BME280;45548;39.530;-9.118;2022-07-11T15:11:15;100674.94;;;27.55;46.84
59682;BME280;45548;39.530;-9.118;2022-07-11T15:13:59;100668.56;;;27.27;47.43
59682;BME280;45548;39.530;-9.118;2022-07-11T15:16:24;100673.91;;;26.45;49.49
59682;BME280;45548;39.530;-9.118;2022-07-11T15:18:56;100683.59;;;25.91;50.89
59682;BME280;45548;39.530;-9.118;2022-07-11T15:21:21;100669.28;;;25.62;51.67
59682;BME280;45548;39.530;-9.118;2022-07-11T15:23:47;100676.84;;;25.99;51.31
59682;BME280;45548;39.530;-9.118;2022-07-11T15:26:13;100676.63;;;25.95;51.17
59682;BME280;45548;39.530;-9.118;2022-07-11T15:28:38;100676.09;;;25.18;53.52
59682;BME280;45548;39.530;-9.118;2022-07-11T15:31:03;100681.22;;;24.89;53.96
59682;BME280;45548;39.530;-9.118;2022-07-11T15:33:29;100684.91;;;25.29;53.76
59682;BME280;45548;39.530;-9.118;2022-07-11T15:35:54;100686.84;;;25.88;52.32
59682;BME280;45548;39.530;-9.118;2022-07-11T15:38:21;100684.22;;;25.73;52.73
59682;BME280;45548;39.530;-9.118;2022-07-11T15:40:47;100683.97;;;25.69;52.73
59682;BME280;45548;39.530;-9.118;2022-07-11T15:43:13;100683.16;;;25.69;52.72
59682;BME280;45548;39.530;-9.118;2022-07-11T15:45:39;100682.47;;;25.38;53.37
59682;BME280;45548;39.530;-9.118;2022-07-11T15:48:05;100667.31;;;24.97;54.67
59682;BME280;45548;39.530;-9.118;2022-07-11T15:50:32;100666.03;;;24.54;55.98
59682;BME280;45548;39.530;-9.118;2022-07-11T15:52:57;100660.69;;;24.34;56.97
59682;BME280;45548;39.530;-9.118;2022-07-11T15:55:25;100662.81;;;24.57;56.56
59682;BME280;45548;39.530;-9.118;2022-07-11T15:57:50;100657.16;;;24.89;55.37
59682;BME280;45548;39.530;-9.118;2022-07-11T16:00:16;100655.28;;;24.90;55.34
59682;BME280;45548;39.530;-9.118;2022-07-11T16:02:42;100641.44;;;24.67;55.80
59682;BME280;45548;39.530;-9.118;2022-07-11T16:05:08;100639.28;;;24.18;56.79
59682;BME280;45548;39.530;-9.118;2022-07-11T16:07:34;100637.84;;;23.75;58.31
59682;BME280;45548;39.530;-9.118;2022-07-11T16:09:59;100624.63;;;23.43;59.54
59682;BME280;45548;39.530;-9.118;2022-07-11T16:12:27;100634.66;;;23.21;60.31
59682;BME280;45548;39.530;-9.118;2022-07-11T16:14:53;100633.47;;;22.96;61.45
59682;BME280;45548;39.530;-9.118;2022-07-11T16:17:19;100626.84;;;22.67;62.26
59682;BME280;45548;39.530;-9.118;2022-07-11T16:19:45;100617.38;;;22.49;62.90
59682;BME280;45548;39.530;-9.118;2022-07-11T16:22:11;100622.31;;;22.30;63.61
59682;BME280;45548;39.530;-9.118;2022-07-11T16:24:37;100603.03;;;22.18;64.55
59682;BME280;45548;39.530;-9.118;2022-07-11T16:27:03;100594.47;;;22.11;64.61
59682;BME280;45548;39.530;-9.118;2022-07-11T16:29:28;100581.69;;;22.13;65.08
59682;BME280;45548;39.530;-9.118;2022-07-11T16:31:54;100588.06;;;22.12;64.27
59682;BME280;45548;39.530;-9.118;2022-07-11T16:34:19;100596.38;;;22.15;65.13
59682;BME280;45548;39.530;-9.118;2022-07-11T16:36:46;100591.72;;;22.32;64.60
59682;BME280;45548;39.530;-9.118;2022-07-11T16:39:11;100608.16;;;22.56;63.64
59682;BME280;45548;39.530;-9.118;2022-07-11T16:41:55;100610.50;;;23.37;61.25
59682;BME280;45548;39.530;-9.118;2022-07-11T16:44:39;100608.78;;;23.89;59.54
59682;BME280;45548;39.530;-9.118;2022-07-11T16:47:04;100617.13;;;24.48;57.84
59682;BME280;45548;39.530;-9.118;2022-07-11T16:49:30;100601.69;;;25.30;55.73
59682;BME280;45548;39.530;-9.118;2022-07-11T16:51:55;100608.22;;;25.64;53.76
59682;BME280;45548;39.530;-9.118;2022-07-11T16:54:21;100607.72;;;24.71;56.23
59682;BME280;45548;39.530;-9.118;2022-07-11T16:56:46;100603.72;;;24.08;58.19
59682;BME280;45548;39.530;-9.118;2022-07-11T16:59:12;100604.50;;;23.93;59.04
59682;BME280;45548;39.530;-9.118;2022-07-11T17:01:37;100594.38;;;24.00;58.50
59682;BME280;45548;39.530;-9.118;2022-07-11T17:04:03;100599.72;;;24.20;58.38
59682;BME280;45548;39.530;-9.118;2022-07-11T17:06:28;100600.53;;;24.26;58.26
59682;BME280;45548;39.530;-9.118;2022-07-11T17:08:54;100587.38;;;23.68;59.38
59682;BME280;45548;39.530;-9.118;2022-07-11T17:11:19;100586.53;;;22.90;61.34
59682;BME280;45548;39.530;-9.118;2022-07-11T17:13:45;100586.22;;;22.44;63.54
59682;BME280;45548;39.530;-9.118;2022-07-11T17:16:12;100589.78;;;22.28;64.29
59682;BME280;45548;39.530;-9.118;2022-07-11T17:18:38;100588.47;;;21.98;65.70
59682;BME280;45548;39.530;-9.118;2022-07-11T17:21:05;100584.69;;;21.94;65.74
59682;BME280;45548;39.530;-9.118;2022-07-11T17:23:31;100585.28;;;22.01;65.96
59682;BME280;45548;39.530;-9.118;2022-07-11T17:25:57;100591.06;;;21.93;66.27
59682;BME280;45548;39.530;-9.118;2022-07-11T17:28:22;100586.19;;;21.85;66.93
59682;BME280;45548;39.530;-9.118;2022-07-11T17:30:51;100580.19;;;21.68;67.21
59682;BME280;45548;39.530;-9.118;2022-07-11T17:33:18;100586.41;;;21.78;66.89
59682;BME280;45548;39.530;-9.118;2022-07-11T17:35:50;100578.31;;;21.95;66.12
59682;BME280;45548;39.530;-9.118;2022-07-11T17:38:17;100584.19;;;21.97;66.49
59682;BME280;45548;39.530;-9.118;2022-07-11T17:40:44;100578.47;;;21.84;66.28
59682;BME280;45548;39.530;-9.118;2022-07-11T17:43:10;100599.44;;;21.53;67.95
59682;BME280;45548;39.530;-9.118;2022-07-11T17:45:36;100590.34;;;21.27;68.69
59682;BME280;45548;39.530;-9.118;2022-07-11T17:48:05;100579.94;;;21.04;69.47
59682;BME280;45548;39.530;-9.118;2022-07-11T17:50:30;100575.78;;;20.91;70.12
59682;BME280;45548;39.530;-9.118;2022-07-11T17:52:56;100579.66;;;20.83;70.96
59682;BME280;45548;39.530;-9.118;2022-07-11T17:55:21;100581.59;;;20.71;71.34
59682;BME280;45548;39.530;-9.118;2022-07-11T17:57:47;100581.31;;;20.51;71.96
59682;BME280;45548;39.530;-9.118;2022-07-11T18:00:13;100579.19;;;20.36;72.86
59682;BME280;45548;39.530;-9.118;2022-07-11T18:02:43;100553.84;;;20.28;73.05
59682;BME280;45548;39.530;-9.118;2022-07-11T18:05:09;100563.19;;;20.14;73.77
59682;BME280;45548;39.530;-9.118;2022-07-11T18:07:35;100571.25;;;19.90;75.23
59682;BME280;45548;39.530;-9.118;2022-07-11T18:10:00;100566.09;;;19.84;75.27
59682;BME280;45548;39.530;-9.118;2022-07-11T18:12:26;100553.53;;;19.62;76.17
59682;BME280;45548;39.530;-9.118;2022-07-11T18:14:53;100557.81;;;19.52;76.94
59682;BME280;45548;39.530;-9.118;2022-07-11T18:17:20;100561.50;;;19.51;76.97
59682;BME280;45548;39.530;-9.118;2022-07-11T18:19:46;100564.06;;;19.46;77.38
59682;BME280;45548;39.530;-9.118;2022-07-11T18:22:12;100570.53;;;19.38;78.07
59682;BME280;45548;39.530;-9.118;2022-07-11T18:24:39;100572.97;;;19.40;78.29
59682;BME280;45548;39.530;-9.118;2022-07-11T18:27:05;100572.84;;;19.34;78.28
59682;BME280;45548;39.530;-9.118;2022-07-11T18:29:31;100574.28;;;19.25;78.51
59682;BME280;45548;39.530;-9.118;2022-07-11T18:31:57;100577.97;;;19.24;78.99
59682;BME280;45548;39.530;-9.118;2022-07-11T18:34:22;100575.66;;;19.16;79.40
59682;BME280;45548;39.530;-9.118;2022-07-11T18:36:48;100583.38;;;19.18;79.70
59682;BME280;45548;39.530;-9.118;2022-07-11T18:39:13;100570.69;;;19.20;79.29
59682;BME280;45548;39.530;-9.118;2022-07-11T18:41:58;100573.81;;;19.17;79.33
59682;BME280;45548;39.530;-9.118;2022-07-11T18:44:23;100573.38;;;19.08;79.97
59682;BME280;45548;39.530;-9.118;2022-07-11T18:46:49;100569.91;;;19.07;79.95
59682;BME280;45548;39.530;-9.118;2022-07-11T18:49:14;100569.81;;;19.02;80.39
59682;BME280;45548;39.530;-9.118;2022-07-11T18:51:40;100575.22;;;18.96;80.37
59682;BME280;45548;39.530;-9.118;2022-07-11T18:54:05;100579.75;;;18.84;81.23
59682;BME280;45548;39.530;-9.118;2022-07-11T18:56:31;100573.78;;;18.76;81.78
59682;BME280;45548;39.530;-9.118;2022-07-11T18:59:00;100568.91;;;18.73;81.98
59682;BME280;45548;39.530;-9.118;2022-07-11T19:01:26;100576.84;;;18.73;82.14
59682;BME280;45548;39.530;-9.118;2022-07-11T19:03:51;100570.88;;;18.66;82.62
59682;BME280;45548;39.530;-9.118;2022-07-11T19:06:17;100577.41;;;18.64;82.73
59682;BME280;45548;39.530;-9.118;2022-07-11T19:08:42;100584.56;;;18.63;82.84
59682;BME280;45548;39.530;-9.118;2022-07-11T19:11:08;100586.38;;;18.63;83.26
59682;BME280;45548;39.530;-9.118;2022-07-11T19:13:33;100592.94;;;18.60;83.26
59682;BME280;45548;39.530;-9.118;2022-07-11T19:15:59;100590.88;;;18.62;83.36
59682;BME280;45548;39.530;-9.118;2022-07-11T19:18:25;100608.16;;;18.65;83.48
59682;BME280;45548;39.530;-9.118;2022-07-11T19:20:50;100603.47;;;18.67;83.40
59682;BME280;45548;39.530;-9.118;2022-07-11T19:23:16;100606.91;;;18.67;83.23
59682;BME280;45548;39.530;-9.118;2022-07-11T19:25:45;100615.28;;;18.64;83.58
59682;BME280;45548;39.530;-9.118;2022-07-11T19:28:10;100616.53;;;18.62;83.48
59682;BME280;45548;39.530;-9.118;2022-07-11T19:30:36;100604.00;;;18.57;83.89
59682;BME280;45548;39.530;-9.118;2022-07-11T19:33:02;100618.28;;;18.56;83.68
59682;BME280;45548;39.530;-9.118;2022-07-11T19:35:28;100623.69;;;18.49;84.22
59682;BME280;45548;39.530;-9.118;2022-07-11T19:37:54;100624.94;;;18.47;84.47
59682;BME280;45548;39.530;-9.118;2022-07-11T19:40:20;100627.00;;;18.45;84.84
59682;BME280;45548;39.530;-9.118;2022-07-11T19:42:45;100634.38;;;18.43;84.90
59682;BME280;45548;39.530;-9.118;2022-07-11T19:45:11;100631.13;;;18.41;84.87
59682;BME280;45548;39.530;-9.118;2022-07-11T19:47:39;100638.50;;;18.39;84.98
59682;BME280;45548;39.530;-9.118;2022-07-11T19:50:09;100647.72;;;18.36;84.79